createdAt,value
2022-12-19T00:00:31.712Z,10.40
2022-12-19T00:02:59.630Z,9.87
2022-12-19T00:05:27.508Z,10.43
2022-12-19T00:07:55.317Z,10.13
2022-12-19T00:10:23.345Z,9.90
2022-12-19T00:12:51.722Z,10.30
2022-12-19T00:15:20.941Z,10.93
2022-12-19T00:17:48.888Z,10.50
2022-12-19T00:20:18.547Z,10.30
2022-12-19T00:22:47.189Z,9.87
2022-12-19T00:25:17.428Z,10.13
2022-12-19T00:27:45.368Z,10.17
2022-12-19T00:30:14.343Z,9.93
2022-12-19T00:32:43.610Z,9.77
2022-12-19T00:35:11.607Z,9.93
2022-12-19T00:37:45.475Z,9.50
2022-12-19T00:40:17.973Z,9.37
2022-12-19T00:42:51.711Z,9.60
2022-12-19T00:45:21.181Z,10.30
2022-12-19T00:47:50.402Z,9.80
2022-12-19T00:50:18.395Z,10.07
2022-12-19T00:52:46.673Z,10.33
2022-12-19T00:55:19.004Z,9.53
2022-12-19T00:57:47.918Z,10.60
2022-12-19T01:00:17.253Z,9.13
2022-12-19T01:02:45.393Z,10.30
2022-12-19T01:05:14.640Z,9.60
2022-12-19T01:07:42.613Z,10.53
2022-12-19T01:10:11.795Z,10.30
2022-12-19T01:12:47.992Z,9.97
2022-12-19T01:15:17.812Z,10.23
2022-12-19T01:17:46.227Z,10.20
2022-12-19T01:20:22.231Z,10.40
2022-12-19T01:22:57.233Z,9.30
2022-12-19T01:25:27.635Z,10.37
2022-12-19T01:27:55.672Z,9.60
2022-12-19T01:30:23.795Z,10.03
2022-12-19T01:32:52.581Z,10.10
2022-12-19T01:35:22.384Z,9.70
2022-12-19T01:37:51.117Z,9.50
2022-12-19T01:40:19.706Z,9.97
2022-12-19T01:42:48.053Z,9.30
2022-12-19T01:45:34.559Z,9.10
2022-12-19T01:48:15.457Z,8.90
2022-12-19T01:51:01.222Z,9.57
2022-12-19T01:53:34.411Z,9.30
2022-12-19T01:56:09.256Z,9.70
2022-12-19T01:58:39.361Z,8.70
2022-12-19T02:01:07.269Z,9.37
2022-12-19T02:03:38.476Z,9.60
2022-12-19T02:06:09.395Z,9.40
2022-12-19T02:08:38.336Z,9.57
2022-12-19T02:11:06.944Z,9.30
2022-12-19T02:13:35.166Z,9.17
2022-12-19T02:16:14.457Z,8.83
2022-12-19T02:18:49.166Z,9.57
2022-12-19T02:21:40.246Z,9.00
2022-12-19T02:24:46.601Z,9.30
2022-12-19T02:27:40.327Z,8.77
2022-12-19T02:30:14.297Z,9.20
2022-12-19T02:32:59.795Z,9.00
2022-12-19T02:35:35.018Z,8.97
2022-12-19T02:38:13.195Z,9.40
2022-12-19T02:40:45.936Z,9.63
2022-12-19T02:43:18.840Z,8.17
2022-12-19T02:45:53.204Z,9.00
2022-12-19T02:48:23.219Z,9.07
2022-12-19T02:50:51.027Z,8.53
2022-12-19T02:53:23.591Z,8.63
2022-12-19T02:56:06.509Z,8.40
2022-12-19T02:58:49.808Z,8.87
2022-12-19T03:01:28.531Z,8.37
2022-12-19T03:04:11.320Z,8.57
2022-12-19T03:06:46.236Z,8.47
2022-12-19T03:09:21.493Z,8.37
2022-12-19T03:11:51.901Z,8.50
2022-12-19T03:14:21.692Z,8.40
2022-12-19T03:16:50.097Z,8.47
2022-12-19T03:19:19.873Z,8.77
2022-12-19T03:21:49.216Z,8.40
2022-12-19T03:24:18.875Z,8.30
2022-12-19T03:26:51.913Z,8.23
2022-12-19T03:29:24.503Z,8.30
2022-12-19T03:31:53.569Z,8.37
2022-12-19T03:34:26.874Z,8.43
2022-12-19T03:36:58.228Z,8.03
2022-12-19T03:39:29.695Z,7.93
2022-12-19T03:42:17.535Z,7.87
2022-12-19T03:44:45.991Z,8.17
2022-12-19T03:47:18.956Z,7.83
2022-12-19T03:49:49.453Z,7.87
2022-12-19T03:52:27.488Z,8.33
2022-12-19T03:55:02.487Z,8.53
2022-12-19T03:57:34.620Z,7.63
2022-12-19T04:00:06.520Z,7.87
2022-12-19T04:02:37.153Z,8.20
2022-12-19T04:05:09.741Z,8.17
2022-12-19T04:07:38.768Z,7.93
2022-12-19T04:10:08.737Z,8.03
2022-12-19T04:12:42.589Z,7.90
2022-12-19T04:15:11.639Z,8.20
2022-12-19T04:17:43.171Z,7.57
2022-12-19T04:20:15.131Z,7.53
2022-12-19T04:22:48.693Z,7.57
2022-12-19T04:25:19.853Z,7.90
2022-12-19T04:27:52.347Z,7.67
2022-12-19T04:30:21.371Z,7.60
2022-12-19T04:32:50.979Z,7.50
2022-12-19T04:35:20.299Z,8.20
2022-12-19T04:37:48.091Z,8.03
2022-12-19T04:40:16.068Z,7.37
2022-12-19T04:42:44.287Z,7.53
2022-12-19T04:45:12.479Z,7.80
2022-12-19T04:47:40.712Z,7.77
2022-12-19T04:50:08.993Z,8.50
2022-12-19T04:52:38.238Z,7.97
2022-12-19T04:55:06.940Z,7.17
2022-12-19T04:57:34.984Z,7.90
2022-12-19T05:00:04.036Z,6.97
2022-12-19T05:02:32.289Z,7.83
2022-12-19T05:05:00.304Z,7.93
2022-12-19T05:07:28.092Z,7.40
2022-12-19T05:09:57.339Z,7.30
2022-12-19T05:12:25.173Z,7.10
2022-12-19T05:14:52.975Z,7.37
2022-12-19T05:17:20.818Z,8.00
2022-12-19T05:19:49.012Z,7.33
2022-12-19T05:22:16.917Z,7.30
2022-12-19T05:24:44.798Z,6.77
2022-12-19T05:27:13.999Z,7.33
2022-12-19T05:29:41.865Z,6.93
2022-12-19T05:32:09.796Z,6.97
2022-12-19T05:34:37.647Z,7.33
2022-12-19T05:37:05.454Z,7.07
2022-12-19T05:39:33.272Z,7.37
2022-12-19T05:42:01.096Z,7.27
2022-12-19T05:44:30.284Z,7.03
2022-12-19T05:46:58.615Z,7.47
2022-12-19T05:49:26.906Z,7.30
2022-12-19T05:51:55.297Z,7.40
2022-12-19T05:54:23.500Z,7.07
2022-12-19T05:56:51.315Z,6.50
2022-12-19T05:59:19.125Z,6.93
2022-12-19T06:01:48.325Z,6.43
2022-12-19T06:04:16.443Z,7.30
2022-12-19T06:06:44.448Z,7.25
2022-12-19T06:09:12.258Z,7.13
2022-12-19T06:11:40.232Z,7.07
2022-12-19T06:14:08.111Z,7.13
2022-12-19T06:16:35.995Z,7.10
2022-12-19T06:19:05.213Z,6.97
2022-12-19T06:21:33.073Z,7.40
2022-12-19T06:24:01.324Z,7.47
2022-12-19T06:26:29.720Z,7.57
2022-12-19T06:28:57.798Z,7.30
2022-12-19T06:31:26.161Z,6.78
2022-12-19T06:33:54.067Z,6.70
2022-12-19T06:36:24.962Z,7.57
2022-12-19T06:38:54.153Z,7.20
2022-12-19T06:41:40.094Z,7.03
2022-12-19T06:44:10.579Z,7.40
2022-12-19T06:46:40.059Z,7.43
2022-12-19T06:49:08.733Z,7.10
2022-12-19T06:51:38.293Z,6.80
2022-12-19T06:54:06.543Z,6.60
2022-12-19T06:56:36.855Z,7.73
2022-12-19T06:59:05.109Z,7.27
2022-12-19T07:01:46.102Z,7.10
2022-12-19T07:04:19.899Z,7.47
2022-12-19T07:06:49.942Z,7.63
2022-12-19T07:09:18.303Z,8.10
2022-12-19T07:11:46.289Z,7.63
2022-12-19T07:14:14.124Z,7.43
2022-12-19T07:16:42.990Z,8.00
2022-12-19T07:19:11.279Z,7.15
2022-12-19T07:21:40.245Z,7.73
2022-12-19T07:24:11.110Z,7.30
2022-12-19T07:26:39.438Z,7.72
2022-12-19T07:29:08.347Z,7.33
2022-12-19T07:31:36.689Z,7.78
2022-12-19T07:34:04.862Z,8.10
2022-12-19T07:36:32.816Z,7.70
2022-12-19T07:39:01.202Z,7.93
2022-12-19T07:41:30.748Z,7.72
2022-12-19T07:43:58.872Z,7.60
2022-12-19T07:46:29.742Z,7.43
2022-12-19T07:49:00.735Z,8.40
2022-12-19T07:51:28.951Z,7.77
2022-12-19T07:53:56.839Z,7.90
2022-12-19T07:56:24.685Z,8.73
2022-12-19T07:58:54.540Z,7.80
2022-12-19T08:01:22.676Z,8.50
2022-12-19T08:03:51.115Z,7.83
2022-12-19T08:06:19.158Z,8.00
2022-12-19T08:08:47.184Z,7.40
2022-12-19T08:11:17.289Z,9.00
2022-12-19T08:13:47.025Z,8.02
2022-12-19T08:16:16.762Z,8.18
2022-12-19T08:18:45.087Z,8.50
2022-12-19T08:21:13.779Z,8.23
2022-12-19T08:23:41.812Z,8.73
2022-12-19T08:26:13.080Z,8.43
2022-12-19T08:28:41.547Z,8.23
2022-12-19T08:31:11.690Z,8.70
2022-12-19T08:33:41.325Z,8.40
2022-12-19T08:36:11.890Z,8.57
2022-12-19T08:38:40.718Z,8.43
2022-12-19T08:41:09.389Z,8.03
2022-12-19T08:43:38.114Z,8.33
2022-12-19T08:46:06.375Z,8.20
2022-12-19T08:48:35.268Z,8.55
2022-12-19T08:51:07.275Z,8.77
2022-12-19T08:53:37.617Z,9.50
2022-12-19T08:56:07.607Z,7.93
2022-12-19T08:58:36.014Z,8.43
2022-12-19T09:01:06.271Z,8.43
2022-12-19T09:03:50.057Z,8.27
2022-12-19T09:06:24.482Z,8.85
2022-12-19T09:08:52.377Z,9.52
2022-12-19T09:11:22.741Z,8.25
2022-12-19T09:13:51.655Z,8.50
2022-12-19T09:16:22.289Z,9.38
2022-12-19T09:18:52.020Z,8.52
2022-12-19T09:21:21.354Z,8.63
2022-12-19T09:23:55.177Z,8.75
2022-12-19T09:26:33.056Z,8.40
2022-12-19T09:29:19.824Z,8.48
2022-12-19T09:31:57.180Z,8.52
2022-12-19T09:34:38.561Z,8.65
2022-12-19T09:37:07.899Z,8.35
2022-12-19T09:39:37.870Z,8.63
2022-12-19T09:42:19.163Z,8.25
2022-12-19T09:45:03.587Z,7.80
2022-12-19T09:47:33.990Z,8.13
2022-12-19T09:50:03.425Z,7.85
2022-12-19T09:52:35.608Z,8.63
2022-12-19T09:55:10.530Z,9.25
2022-12-19T09:57:47.419Z,7.72
2022-12-19T10:00:20.528Z,7.70
2022-12-19T10:02:52.581Z,7.20
2022-12-19T10:05:58.427Z,7.82
2022-12-19T10:08:20.017Z,7.68
2022-12-19T10:12:37.533Z,7.43
2022-12-19T10:14:11.305Z,7.20
2022-12-19T10:17:08.958Z,7.38
2022-12-19T10:19:49.367Z,8.00
2022-12-19T10:22:25.841Z,8.32
2022-12-19T10:25:31.181Z,7.00
2022-12-19T10:28:10.008Z,7.63
2022-12-19T10:30:43.986Z,6.97
2022-12-19T10:33:24.943Z,7.40
2022-12-19T10:35:57.533Z,7.10
2022-12-19T10:38:36.800Z,7.20
2022-12-19T10:41:15.519Z,7.07
2022-12-19T10:43:52.216Z,7.53
2022-12-19T10:46:26.512Z,6.88
2022-12-19T10:48:54.706Z,7.20
2022-12-19T10:51:26.875Z,6.80
2022-12-19T10:53:57.396Z,6.55
2022-12-19T10:56:34.995Z,6.63
2022-12-19T10:59:18.281Z,6.90
2022-12-19T11:02:00.363Z,6.93
2022-12-19T11:04:32.429Z,6.75
2022-12-19T11:07:18.218Z,6.45
2022-12-19T11:10:09.872Z,6.80
2022-12-19T11:17:22.116Z,6.35
2022-12-19T11:20:30.745Z,6.90
2022-12-19T11:27:42.909Z,7.32
2022-12-19T11:30:05.066Z,6.80
2022-12-19T11:30:46.074Z,6.53
2022-12-19T11:30:46.603Z,7.38
2022-12-19T11:32:42.292Z,7.00
2022-12-19T11:35:18.972Z,7.32
2022-12-19T11:37:55.511Z,7.60
2022-12-19T11:40:32.951Z,6.85
2022-12-19T11:43:42.484Z,6.80
2022-12-19T11:46:01.120Z,7.07
2022-12-19T11:48:37.527Z,7.28
2022-12-19T11:51:13.748Z,6.93
2022-12-19T11:53:50.672Z,7.13
2022-12-19T11:56:21.894Z,7.38
2022-12-19T11:58:52.849Z,7.25
2022-12-19T12:01:35.597Z,7.07
2022-12-19T12:04:38.180Z,7.40
2022-12-19T12:07:11.849Z,7.10
2022-12-19T12:12:13.085Z,7.90
2022-12-19T12:20:57.672Z,7.38
2022-12-19T12:26:50.710Z,7.00
2022-12-19T12:31:07.145Z,7.18
2022-12-19T12:31:12.075Z,8.35
2022-12-19T12:31:12.321Z,8.02
2022-12-19T12:31:44.723Z,7.55
2022-12-19T12:31:56.212Z,7.03
2022-12-19T12:35:46.387Z,8.18
2022-12-19T12:40:04.943Z,7.68
2022-12-19T12:42:44.961Z,8.13
2022-12-19T12:45:21.665Z,8.00
2022-12-19T12:47:53.082Z,8.43
2022-12-19T12:50:26.247Z,8.02
2022-12-19T12:52:59.004Z,7.97
2022-12-19T12:55:31.948Z,8.32
2022-12-19T12:58:01.075Z,8.05
2022-12-19T13:00:31.773Z,8.23
2022-12-19T13:03:07.156Z,9.13
2022-12-19T13:05:52.933Z,9.00
2022-12-19T13:08:49.988Z,8.13
2022-12-19T13:11:56.198Z,8.82
2022-12-19T13:14:46.327Z,8.63
2022-12-19T13:17:19.420Z,9.02
2022-12-19T13:19:56.715Z,8.77
2022-12-19T13:22:42.801Z,8.82
2022-12-19T13:25:52.094Z,8.65
2022-12-19T13:28:43.123Z,8.57
2022-12-19T13:31:23.218Z,9.35
2022-12-19T13:34:19.212Z,8.75
2022-12-19T13:39:57.947Z,8.57
2022-12-19T13:40:07.493Z,8.70
2022-12-19T13:43:09.322Z,9.23
2022-12-19T13:45:45.013Z,9.07
2022-12-19T13:48:17.687Z,9.23
2022-12-19T13:50:49.439Z,8.88
2022-12-19T13:53:19.422Z,9.05
2022-12-19T13:55:47.925Z,8.80
2022-12-19T13:58:38.315Z,8.80
2022-12-19T14:01:21.164Z,8.68
2022-12-19T14:03:51.837Z,8.70
2022-12-19T14:06:22.939Z,8.85
2022-12-19T14:09:46.247Z,8.32
2022-12-19T14:12:29.055Z,9.68
2022-12-19T14:15:12.524Z,9.15
2022-12-19T14:17:40.559Z,9.25
2022-12-19T14:22:02.054Z,8.48
2022-12-19T14:23:07.427Z,8.77
2022-12-19T14:28:18.227Z,8.98
2022-12-19T14:28:38.333Z,9.25
2022-12-19T14:31:12.745Z,9.80
2022-12-19T14:33:58.891Z,9.20
2022-12-19T14:36:34.241Z,9.23
2022-12-19T14:39:27.429Z,8.82
2022-12-19T14:42:49.252Z,9.27
2022-12-19T14:51:51.418Z,9.52
2022-12-19T14:52:35.769Z,9.05
2022-12-19T14:54:26.178Z,9.07
2022-12-19T14:55:35.953Z,8.90
2022-12-19T14:57:29.027Z,8.93
2022-12-19T15:01:07.625Z,9.10
2022-12-19T15:03:27.671Z,9.45
2022-12-19T15:06:49.205Z,8.45
2022-12-19T15:11:06.383Z,9.52
2022-12-19T15:16:10.291Z,9.10
2022-12-19T15:18:51.797Z,8.95
2022-12-19T15:21:30.664Z,9.68
2022-12-19T15:23:59.112Z,9.35
2022-12-19T15:26:32.339Z,8.80
2022-12-19T15:29:02.054Z,9.15
2022-12-19T15:31:35.052Z,9.45
2022-12-19T15:37:03.660Z,9.55
2022-12-19T15:39:32.526Z,8.60
2022-12-19T15:42:01.983Z,8.48
2022-12-19T15:44:34.416Z,9.63
2022-12-19T15:47:03.584Z,9.32
2022-12-19T15:49:35.301Z,9.38
2022-12-19T15:52:13.359Z,9.63
2022-12-19T15:54:50.349Z,10.05
2022-12-19T15:57:29.278Z,9.65
2022-12-19T16:00:00.395Z,9.32
2022-12-19T16:02:56.352Z,9.65
2022-12-19T16:05:19.052Z,9.70
2022-12-19T16:07:50.294Z,9.98
2022-12-19T16:10:19.281Z,8.65
2022-12-19T16:12:51.789Z,9.55
2022-12-19T16:15:26.023Z,9.50
2022-12-19T16:17:54.451Z,8.93
2022-12-19T16:20:25.438Z,9.15
2022-12-19T16:22:56.077Z,9.07
2022-12-19T16:25:28.225Z,8.73
2022-12-19T16:27:59.060Z,9.18
2022-12-19T16:30:30.340Z,9.00
2022-12-19T16:32:58.962Z,8.98
2022-12-19T16:36:02.453Z,8.50
2022-12-19T16:38:19.391Z,8.70
2022-12-19T16:40:47.908Z,8.63
2022-12-19T16:43:21.242Z,9.38
2022-12-19T16:45:49.579Z,8.60
2022-12-19T16:48:24.668Z,8.57
2022-12-19T16:50:53.197Z,8.02
2022-12-19T16:53:26.225Z,8.52
2022-12-19T16:55:59.798Z,8.48
2022-12-19T16:58:31.085Z,8.20
2022-12-19T17:00:59.702Z,8.77
2022-12-19T17:03:32.883Z,8.32
2022-12-19T17:06:03.959Z,8.63
2022-12-19T17:08:35.463Z,7.85
2022-12-19T17:11:04.293Z,9.73
2022-12-19T17:13:33.910Z,7.97
2022-12-19T17:16:03.187Z,9.20
2022-12-19T17:18:34.497Z,8.98
2022-12-19T17:21:05.980Z,8.70
2022-12-19T17:23:37.925Z,8.57
2022-12-19T17:26:06.692Z,9.50
2022-12-19T17:28:35.330Z,7.97
2022-12-19T17:31:07.509Z,8.88
2022-12-19T17:33:38.219Z,8.13
2022-12-19T17:36:12.942Z,8.90
2022-12-19T17:38:43.246Z,8.05
2022-12-19T17:41:16.934Z,8.77
2022-12-19T17:43:46.257Z,8.85
2022-12-19T17:46:19.533Z,8.88
2022-12-19T17:48:51.322Z,9.30
2022-12-19T17:51:20.886Z,8.30
2022-12-19T17:53:51.443Z,8.75
2022-12-19T17:56:21.044Z,8.65
2022-12-19T17:58:49.393Z,8.65
2022-12-19T18:01:22.105Z,9.18
2022-12-19T18:03:52.270Z,8.05
2022-12-19T18:06:21.469Z,9.80
2022-12-19T18:08:51.333Z,9.40
2022-12-19T18:11:22.637Z,9.02
2022-12-19T18:13:51.534Z,8.50
2022-12-19T18:16:27.180Z,8.48
2022-12-19T18:18:55.296Z,8.52
2022-12-19T18:21:24.510Z,9.23
2022-12-19T18:23:55.392Z,8.32
2022-12-19T18:26:23.615Z,8.95
2022-12-19T18:28:51.725Z,9.13
2022-12-19T18:31:25.689Z,8.48
2022-12-19T18:33:59.622Z,8.05
2022-12-19T18:36:35.962Z,8.65
2022-12-19T18:39:06.239Z,9.43
2022-12-19T18:41:34.290Z,8.50
2022-12-19T18:44:02.609Z,8.85
2022-12-19T18:46:31.718Z,8.65
2022-12-19T18:48:59.806Z,8.63
2022-12-19T18:51:28.059Z,8.90
2022-12-19T18:53:56.308Z,8.35
2022-12-19T18:56:25.796Z,8.57
2022-12-19T18:58:54.023Z,8.55
2022-12-19T19:01:22.259Z,8.70
2022-12-19T19:03:54.737Z,8.50
2022-12-19T19:06:26.326Z,7.45
2022-12-19T19:08:56.504Z,8.48
2022-12-19T19:11:26.783Z,8.70
2022-12-19T19:13:54.893Z,8.05
2022-12-19T19:16:24.891Z,9.20
2022-12-19T19:18:54.861Z,8.30
2022-12-19T19:21:25.662Z,8.75
2022-12-19T19:23:57.003Z,8.13
2022-12-19T19:26:26.580Z,8.57
2022-12-19T19:28:54.793Z,7.95
2022-12-19T19:31:26.829Z,8.30
2022-12-19T19:33:59.998Z,8.43
2022-12-19T19:36:31.937Z,8.90
2022-12-19T19:39:00.264Z,8.20
2022-12-19T19:41:30.675Z,7.32
2022-12-19T19:43:59.988Z,8.70
2022-12-19T19:46:28.064Z,8.00
2022-12-19T19:49:18.440Z,7.90
2022-12-19T19:51:50.109Z,8.20
2022-12-19T19:54:21.419Z,8.45
2022-12-19T19:56:51.188Z,7.53
2022-12-19T19:59:19.327Z,8.07
2022-12-19T20:01:48.234Z,7.93
2022-12-19T20:04:19.499Z,7.88
2022-12-19T20:06:47.845Z,7.95
2022-12-19T20:09:16.415Z,8.30
2022-12-19T20:11:46.221Z,8.20
2022-12-19T20:14:16.178Z,9.25
2022-12-19T20:16:47.667Z,8.00
2022-12-19T20:19:16.753Z,8.25
2022-12-19T20:21:45.647Z,8.38
2022-12-19T20:24:15.564Z,7.97
2022-12-19T20:26:46.858Z,8.00
2022-12-19T20:29:26.683Z,7.80
2022-12-19T20:31:56.432Z,7.90
2022-12-19T20:34:25.986Z,7.95
2022-12-19T20:37:03.950Z,8.07
2022-12-19T20:39:36.509Z,7.93
2022-12-19T20:42:06.560Z,8.10
2022-12-19T20:44:38.616Z,8.23
2022-12-19T20:47:07.076Z,8.05
2022-12-19T20:49:36.770Z,7.53
2022-12-19T20:52:07.888Z,8.45
2022-12-19T20:54:36.049Z,7.43
2022-12-19T20:57:04.307Z,7.53
2022-12-19T20:59:32.655Z,7.88
2022-12-19T21:02:02.713Z,7.80
2022-12-19T21:04:33.228Z,8.00
2022-12-19T21:07:01.622Z,7.97
2022-12-19T21:09:30.101Z,7.45
2022-12-19T21:11:58.419Z,7.22
2022-12-19T21:14:26.609Z,7.53
2022-12-19T21:16:54.985Z,7.85
2022-12-19T21:19:24.364Z,7.53
2022-12-19T21:21:52.354Z,7.38
2022-12-19T21:24:20.603Z,7.53
2022-12-19T21:26:57.650Z,6.90
2022-12-19T21:29:26.703Z,7.32
2022-12-19T21:31:55.854Z,6.93
2022-12-19T21:34:25.789Z,7.40
2022-12-19T21:36:54.098Z,7.18
2022-12-19T21:39:25.559Z,7.38
2022-12-19T21:41:53.969Z,7.20
2022-12-19T21:44:22.121Z,7.47
2022-12-19T21:46:50.397Z,7.32
2022-12-19T21:49:18.713Z,7.38
2022-12-19T21:51:48.363Z,7.20
2022-12-19T21:54:18.630Z,7.35
2022-12-19T21:56:47.179Z,7.22
2022-12-19T21:59:16.883Z,7.65
2022-12-19T22:01:45.902Z,7.50
2022-12-19T22:04:17.999Z,6.93
2022-12-19T22:06:47.806Z,7.03
2022-12-19T22:09:18.248Z,7.20
2022-12-19T22:11:47.234Z,7.22
2022-12-19T22:14:17.029Z,7.45
2022-12-19T22:16:45.455Z,7.78
2022-12-19T22:19:16.509Z,7.10
2022-12-19T22:21:44.986Z,6.75
2022-12-19T22:24:16.260Z,6.93
2022-12-19T22:26:45.129Z,7.40
2022-12-19T22:29:16.590Z,6.50
2022-12-19T22:31:45.889Z,7.60
2022-12-19T22:34:17.324Z,6.88
2022-12-19T22:36:46.302Z,7.07
2022-12-19T22:39:17.939Z,7.65
2022-12-19T22:41:46.695Z,7.45
2022-12-19T22:44:19.466Z,7.03
2022-12-19T22:46:47.993Z,7.45
2022-12-19T22:49:16.434Z,7.65
2022-12-19T22:51:44.686Z,7.50
2022-12-19T22:54:15.421Z,6.88
2022-12-19T22:56:43.626Z,7.50
2022-12-19T22:59:13.347Z,7.47
2022-12-19T23:01:43.349Z,7.53
2022-12-19T23:04:14.237Z,7.30
2022-12-19T23:06:42.886Z,7.10
2022-12-19T23:09:17.844Z,7.47
2022-12-19T23:11:49.925Z,7.63
2022-12-19T23:14:19.534Z,7.07
2022-12-19T23:16:48.143Z,7.60
2022-12-19T23:19:17.305Z,8.10
2022-12-19T23:21:46.009Z,7.30
2022-12-19T23:24:14.784Z,7.47
2022-12-19T23:26:43.099Z,7.50
2022-12-19T23:29:15.788Z,7.70
2022-12-19T23:31:46.307Z,7.32
2022-12-19T23:34:14.765Z,7.18
2022-12-19T23:37:10.186Z,6.93
2022-12-19T23:39:31.423Z,7.18
2022-12-19T23:41:59.997Z,6.70
2022-12-19T23:44:29.880Z,7.28
2022-12-19T23:47:03.135Z,8.10
2022-12-19T23:49:32.100Z,7.10
2022-12-19T23:52:00.441Z,6.85
2022-12-19T23:54:28.756Z,6.88
2022-12-19T23:56:56.989Z,7.45
2022-12-19T23:59:25.411Z,7.05
